Time;durP1;ratioP1;P1;durP2;ratioP2;P2;SDS_P1;SDS_P2;PMS_P1;PMS_P2;Temp;Humidity;BMP_temperature;BMP_pressure;BME280_temperature;BME280_humidity;BME280_pressure;Samples;Min_cycle;Max_cycle;Signal;HPM_P1;HPM_P2
2022/12/28 03:33:01;;;;;;;12.93;8.93;;;12.50;97.00;;;;;;4589407;19;20011;-29
2022/12/28 03:34:33;;;;;;;13.07;7.85;;;12.50;97.00;;;;;;4588348;19;20425;-29
2022/12/28 03:36:27;;;;;;;10.57;7.95;;;12.50;97.10;;;;;;4588499;19;20039;-30
2022/12/28 03:38:01;;;;;;;10.20;7.10;;;12.50;97.00;;;;;;4588150;19;20092;-29
2022/12/28 03:39:36;;;;;;;12.17;7.87;;;12.50;96.90;;;;;;4588766;19;20421;-29
2022/12/28 03:41:11;;;;;;;11.43;8.30;;;12.50;96.90;;;;;;4588002;19;20440;-31
2022/12/28 03:44:35;;;;;;;12.67;7.57;;;12.50;96.80;;;;;;4588342;19;20807;-29
2022/12/28 03:46:19;;;;;;;12.37;7.83;;;12.50;96.80;;;;;;4588488;19;20421;-29
2022/12/28 03:47:51;;;;;;;10.53;7.50;;;12.50;96.70;;;;;;4588426;19;20010;-30
2022/12/28 03:49:23;;;;;;;12.75;8.63;;;12.50;96.80;;;;;;4588000;19;20026;-31
2022/12/28 03:50:54;;;;;;;11.55;8.00;;;12.50;96.70;;;;;;4588528;19;20015;-31
2022/12/28 03:52:26;;;;;;;11.27;8.50;;;12.50;96.80;;;;;;4589257;19;20011;-29
2022/12/28 03:53:58;;;;;;;;;;;12.50;96.70;;;;;;4590313;19;20018;-30
2022/12/28 03:55:29;;;;;;;12.05;8.00;;;12.50;96.70;;;;;;4588115;19;20012;-29
2022/12/28 03:57:01;;;;;;;10.13;7.30;;;12.50;96.70;;;;;;4586880;19;20524;-29
2022/12/28 03:58:34;;;;;;;9.93;6.57;;;12.50;96.70;;;;;;4588612;19;20441;-29
2022/12/28 04:00:10;;;;;;;9.43;7.43;;;12.50;96.70;;;;;;4588391;19;20015;-29
2022/12/28 04:01:42;;;;;;;11.77;7.27;;;12.50;96.60;;;;;;4587825;19;20462;-29
2022/12/28 04:03:13;;;;;;;;;;;12.50;96.60;;;;;;4588760;19;20351;-29
2022/12/28 04:04:45;;;;;;;12.80;7.37;;;12.50;96.50;;;;;;4588928;19;19919;-29
2022/12/28 04:06:17;;;;;;;10.40;7.57;;;12.50;96.60;;;;;;4588850;19;20441;-29
2022/12/28 04:07:48;;;;;;;11.53;7.03;;;12.50;96.50;;;;;;4589033;19;20344;-31
2022/12/28 04:09:22;;;;;;;11.37;8.13;;;12.40;96.50;;;;;;4588782;19;20446;-29
2022/12/28 04:10:53;;;;;;;10.63;7.10;;;12.50;96.60;;;;;;4589153;19;20468;-29
2022/12/28 04:12:25;;;;;;;10.63;7.63;;;12.50;96.60;;;;;;4589050;19;20011;-29
2022/12/28 04:13:57;;;;;;;9.93;7.17;;;12.40;96.40;;;;;;4588803;19;20022;-29
2022/12/28 04:15:29;;;;;;;9.90;7.30;;;12.40;96.40;;;;;;4587826;19;20011;-30
2022/12/28 04:17:01;;;;;;;11.73;7.50;;;12.50;96.40;;;;;;4588405;19;20433;-29
2022/12/28 04:18:34;;;;;;;11.57;7.37;;;12.50;96.50;;;;;;4588851;19;20003;-29
2022/12/28 04:20:06;;;;;;;9.75;7.25;;;12.50;96.60;;;;;;4587998;19;20481;-29
2022/12/28 04:21:38;;;;;;;9.83;7.47;;;12.50;96.60;;;;;;4587347;19;20006;-30
2022/12/28 04:23:09;;;;;;;12.07;7.45;;;12.40;96.60;;;;;;4588666;19;20464;-29
2022/12/28 04:24:40;;;;;;;8.70;6.70;;;12.40;96.60;;;;;;4588681;19;20020;-29
2022/12/28 04:26:13;;;;;;;9.83;6.10;;;12.40;96.50;;;;;;4587298;19;20022;-29
2022/12/28 04:27:45;;;;;;;10.07;7.17;;;12.40;96.50;;;;;;4587038;19;20501;-29
2022/12/28 04:29:16;;;;;;;8.93;6.78;;;12.40;96.70;;;;;;4588086;19;20047;-30
2022/12/28 04:30:49;;;;;;;11.13;7.23;;;12.40;96.90;;;;;;4588223;19;20014;-29
2022/12/28 04:32:21;;;;;;;10.30;6.55;;;12.40;96.90;;;;;;4587021;19;20429;-29
2022/12/28 05:33:48;;;;;;;9.90;6.50;;;12.90;97.60;;;;;;4590971;19;20814;-30
2022/12/28 05:35:19;;;;;;;;;;;12.90;97.60;;;;;;4593213;19;20038;-31
2022/12/28 05:36:50;;;;;;;10.13;6.23;;;12.80;97.50;;;;;;4592962;19;20263;-34
2022/12/28 05:38:21;;;;;;;10.23;6.50;;;12.80;97.50;;;;;;4593249;19;20017;-28
2022/12/28 05:39:53;;;;;;;13.13;6.80;;;12.80;97.50;;;;;;4591816;19;20041;-29
2022/12/28 05:41:25;;;;;;;8.05;6.00;;;12.80;97.50;;;;;;4591606;19;20086;-28
2022/12/28 05:42:56;;;;;;;9.67;5.97;;;12.80;97.50;;;;;;4592244;19;20357;-35
2022/12/28 05:44:28;;;;;;;10.07;6.57;;;12.80;97.50;;;;;;4591947;19;20107;-28
2022/12/28 05:46:03;;;;;;;9.60;6.63;;;12.80;97.60;;;;;;4592133;19;20018;-29
2022/12/28 05:47:35;;;;;;;10.07;5.50;;;12.80;97.60;;;;;;4592679;19;20463;-31
2022/12/28 05:49:11;;;;;;;10.40;6.30;;;12.80;97.60;;;;;;4592861;19;20007;-31
2022/12/28 05:50:42;;;;;;;9.97;6.37;;;12.70;97.60;;;;;;4592582;19;20018;-29
2022/12/28 05:52:13;;;;;;;9.15;5.97;;;12.70;97.50;;;;;;4592235;19;20007;-30
2022/12/28 05:53:45;;;;;;;9.20;6.43;;;12.70;97.50;;;;;;4592499;19;20007;-31
2022/12/28 05:55:16;;;;;;;10.57;6.68;;;12.70;97.50;;;;;;4592253;19;20002;-28
2022/12/28 05:56:49;;;;;;;10.57;6.85;;;12.70;97.40;;;;;;4590773;19;20397;-31
2022/12/28 05:58:21;;;;;;;13.40;7.30;;;12.70;97.50;;;;;;4591722;19;20038;-29
2022/12/28 05:59:52;;;;;;;14.65;8.60;;;12.70;97.40;;;;;;4591755;19;20018;-29
2022/12/28 06:01:24;;;;;;;17.33;8.10;;;12.70;97.40;;;;;;4591405;19;20014;-30
2022/12/28 06:02:56;;;;;;;19.53;9.53;;;12.70;97.30;;;;;;4591179;19;20007;-34
2022/12/28 06:04:27;;;;;;;18.27;9.45;;;12.70;97.30;;;;;;4592058;19;20015;-29
2022/12/28 06:06:06;;;;;;;19.05;9.20;;;12.70;97.30;;;;;;4592343;19;20035;-31
2022/12/28 06:07:39;;;;;;;15.63;9.07;;;12.70;97.30;;;;;;4590602;19;20535;-34
2022/12/28 06:09:11;;;;;;;16.70;9.43;;;12.70;97.30;;;;;;4591222;19;20007;-36
2022/12/28 06:10:42;;;;;;;15.85;9.20;;;12.70;97.30;;;;;;4591632;19;20018;-35
2022/12/28 06:12:13;;;;;;;11.55;8.70;;;12.70;97.20;;;;;;4592147;19;20022;-31
2022/12/28 06:13:45;;;;;;;14.77;8.50;;;12.70;97.20;;;;;;4592747;19;20011;-33
2022/12/28 06:15:16;;;;;;;15.87;9.43;;;12.70;97.40;;;;;;4591687;19;20014;-31
2022/12/28 06:16:48;;;;;;;19.50;9.05;;;12.70;97.20;;;;;;4591738;19;20400;-32
2022/12/28 06:18:19;;;;;;;19.35;9.85;;;12.70;97.10;;;;;;4590840;19;20027;-31
2022/12/28 06:19:50;;;;;;;16.77;8.15;;;12.60;97.10;;;;;;4591513;19;20478;-35
2022/12/28 06:21:25;;;;;;;14.45;8.20;;;12.70;97.10;;;;;;4588767;19;20014;-34
2022/12/28 06:22:57;;;;;;;12.10;7.80;;;12.60;97.00;;;;;;4590993;19;20010;-32
2022/12/28 06:24:28;;;;;;;13.30;7.97;;;12.60;97.10;;;;;;4592119;19;20420;-32
2022/12/28 06:26:00;;;;;;;12.82;8.25;;;12.60;97.00;;;;;;4591425;19;20034;-35
2022/12/28 06:27:31;;;;;;;12.47;8.37;;;12.60;97.00;;;;;;4591273;19;20018;-34
2022/12/28 06:29:02;;;;;;;11.45;7.13;;;12.70;97.10;;;;;;4591625;19;20038;-34
2022/12/28 06:30:34;;;;;;;10.80;6.82;;;12.60;97.00;;;;;;4590668;19;20016;-30
2022/12/28 06:32:05;;;;;;;12.45;7.50;;;12.60;97.10;;;;;;4590265;19;20018;-33
2022/12/28 06:35:21;;;;;;;11.77;7.97;;;12.60;97.10;;;;;;4591037;19;20014;-33
2022/12/28 06:36:55;;;;;;;12.13;7.15;;;12.60;97.10;;;;;;4590121;19;20840;-34
2022/12/28 06:38:28;;;;;;;12.50;7.20;;;12.60;97.20;;;;;;4589127;19;20021;-28
2022/12/28 06:39:59;;;;;;;10.20;6.87;;;12.60;97.20;;;;;;4587755;19;20025;-31
2022/12/28 06:41:31;;;;;;;11.30;7.78;;;12.60;97.20;;;;;;4589246;19;20022;-33
2022/12/28 06:43:02;;;;;;;12.93;7.32;;;12.60;97.30;;;;;;4588875;19;20120;-29
2022/12/28 06:44:33;;;;;;;9.43;7.10;;;12.60;97.30;;;;;;4588772;19;20015;-28
2022/12/28 06:46:05;;;;;;;10.93;7.40;;;12.60;97.30;;;;;;4589248;19;20383;-29
2022/12/28 06:47:39;;;;;;;11.63;7.20;;;12.60;97.30;;;;;;4590234;19;20015;-29
2022/12/28 06:49:11;;;;;;;10.97;8.00;;;12.60;97.40;;;;;;4591534;19;20374;-29
2022/12/28 06:50:52;;;;;;;12.27;7.85;;;12.60;97.40;;;;;;4591022;19;20011;-34
2022/12/28 06:52:24;;;;;;;11.73;7.97;;;12.60;97.40;;;;;;4589934;19;20019;-31
2022/12/28 06:59:19;;;;;;;11.43;7.77;;;12.60;97.30;;;;;;4591734;19;20413;-31
2022/12/28 07:00:50;;;;;;;13.05;7.88;;;12.60;97.30;;;;;;4587561;19;20925;-29
2022/12/28 07:02:21;;;;;;;15.55;9.45;;;12.50;97.30;;;;;;4589685;19;20022;-28
2022/12/28 07:03:53;;;;;;;15.93;9.70;;;12.50;97.40;;;;;;4590693;19;20033;-29
2022/12/28 07:05:25;;;;;;;14.10;8.57;;;12.50;97.40;;;;;;4589485;19;20014;-32
2022/12/28 07:06:57;;;;;;;16.85;9.07;;;12.50;97.40;;;;;;4588470;19;20468;-31
2022/12/28 07:08:36;;;;;;;16.43;8.90;;;12.60;97.40;;;;;;4588056;19;20014;-29
2022/12/28 07:10:08;;;;;;;13.43;8.07;;;12.60;97.30;;;;;;4585507;19;20074;-35
2022/12/28 07:11:40;;;;;;;9.47;7.93;;;12.60;97.30;;;;;;4586590;19;20038;-30
2022/12/28 07:13:16;;;;;;;13.93;8.48;;;12.60;97.20;;;;;;4585176;19;20488;-29
2022/12/28 07:14:47;;;;;;;14.93;8.67;;;12.60;97.30;;;;;;4588759;19;20637;-31
2022/12/28 07:16:20;;;;;;;11.90;8.17;;;12.60;97.20;;;;;;4588207;19;20768;-32
2022/12/28 07:17:51;;;;;;;10.60;7.33;;;12.60;97.20;;;;;;4587596;19;20477;-31
2022/12/28 07:19:24;;;;;;;11.20;7.50;;;12.60;97.20;;;;;;4587051;19;20465;-31
2022/12/28 07:21:05;;;;;;;11.10;8.48;;;12.60;97.20;;;;;;4585920;19;20473;-27
2022/12/28 07:22:36;;;;;;;10.80;7.40;;;12.60;97.20;;;;;;4586039;19;20456;-29
2022/12/28 07:24:07;;;;;;;11.45;7.05;;;12.60;97.10;;;;;;4586701;19;20018;-30
2022/12/28 07:25:39;;;;;;;12.07;7.97;;;12.60;97.10;;;;;;4585937;19;20014;-35
2022/12/28 07:27:10;;;;;;;11.00;7.32;;;12.60;97.10;;;;;;4586077;19;20010;-32
2022/12/28 07:28:43;;;;;;;11.25;7.80;;;12.60;97.20;;;;;;4586733;19;20043;-32
2022/12/28 07:30:14;;;;;;;10.67;7.33;;;12.60;97.10;;;;;;4588837;19;20071;-30
2022/12/28 07:31:47;;;;;;;11.07;8.37;;;12.60;97.10;;;;;;4588445;19;20576;-29
2022/12/28 07:33:18;;;;;;;10.98;8.27;;;12.60;97.10;;;;;;4586611;19;20006;-30
2022/12/28 07:36:35;;;;;;;16.73;11.57;;;12.60;97.10;;;;;;4587171;19;20003;-30
2022/12/28 07:38:07;;;;;;;18.40;12.30;;;12.60;97.00;;;;;;4587191;19;20530;-28
2022/12/28 07:39:38;;;;;;;21.27;14.30;;;12.60;97.00;;;;;;4586940;19;20561;-33
2022/12/28 07:41:14;;;;;;;22.90;15.23;;;12.70;97.20;;;;;;4586572;19;20480;-27
2022/12/28 07:42:46;;;;;;;21.77;14.77;;;12.80;97.00;;;;;;4586004;19;20015;-29
2022/12/28 07:44:17;;;;;;;20.90;12.27;;;12.80;96.90;;;;;;4585547;19;21103;-28
2022/12/28 07:45:48;;;;;;;19.25;11.13;;;12.90;96.80;;;;;;4585536;19;20551;-34
2022/12/28 07:47:20;;;;;;;15.80;9.70;;;12.90;96.80;;;;;;4586218;19;20018;-33
2022/12/28 07:48:51;;;;;;;13.88;9.73;;;12.90;96.80;;;;;;4588174;19;20527;-31
2022/12/28 07:50:22;;;;;;;12.80;9.45;;;12.90;96.80;;;;;;4587822;19;20015;-29
2022/12/28 07:51:54;;;;;;;14.85;9.38;;;12.90;96.80;;;;;;4587946;19;20017;-31
2022/12/28 07:53:25;;;;;;;15.02;9.52;;;12.90;96.80;;;;;;4587108;19;20074;-29
2022/12/28 07:54:56;;;;;;;12.10;8.80;;;12.90;96.80;;;;;;4588115;19;20460;-33
2022/12/28 07:56:29;;;;;;;14.63;9.33;;;13.00;96.80;;;;;;4588720;19;20015;-29
2022/12/28 07:58:00;;;;;;;;;;;12.90;96.70;;;;;;4588958;19;20512;-29
2022/12/28 07:59:32;;;;;;;12.20;8.93;;;13.00;96.70;;;;;;4587212;19;20135;-31
2022/12/28 08:01:05;;;;;;;15.03;8.87;;;13.00;96.70;;;;;;4586411;19;20007;-28
2022/12/28 08:02:36;;;;;;;12.47;7.97;;;13.00;96.70;;;;;;4588137;19;20425;-32
2022/12/28 08:04:11;;;;;;;12.68;8.73;;;13.00;96.60;;;;;;4590783;19;20048;-30
2022/12/28 08:05:42;;;;;;;14.73;10.23;;;13.00;96.70;;;;;;4589841;19;20021;-31
2022/12/28 08:07:13;;;;;;;16.65;9.57;;;13.00;96.70;;;;;;4589268;19;20014;-29
2022/12/28 08:08:46;;;;;;;15.52;9.98;;;13.00;96.60;;;;;;4588501;19;20491;-32
2022/12/28 08:10:33;;;;;;;13.50;8.80;;;13.00;96.60;;;;;;4589528;19;20084;-29
2022/12/28 08:12:04;;;;;;;15.20;9.80;;;13.00;96.70;;;;;;4587977;19;20014;-33
2022/12/28 08:13:37;;;;;;;12.85;8.93;;;13.00;96.70;;;;;;4588583;19;20021;-33
2022/12/28 08:15:08;;;;;;;17.50;11.13;;;13.00;96.70;;;;;;4587397;19;20003;-29
2022/12/28 08:16:41;;;;;;;15.10;9.40;;;13.00;96.80;;;;;;4587516;19;20028;-33
2022/12/28 08:18:13;;;;;;;14.33;9.40;;;13.00;96.80;;;;;;4589992;19;20014;-29
2022/12/28 08:19:44;;;;;;;13.95;9.35;;;13.00;96.80;;;;;;4589392;19;20052;-30
2022/12/28 08:21:18;;;;;;;15.93;9.40;;;12.90;96.80;;;;;;4589623;19;20017;-32
2022/12/28 08:22:49;;;;;;;11.73;8.80;;;12.90;96.80;;;;;;4592420;19;20014;-32
2022/12/28 08:24:20;;;;;;;17.35;11.45;;;12.90;96.90;;;;;;4593276;19;20015;-34
2022/12/28 08:27:42;;;;;;;24.90;16.30;;;12.90;97.00;;;;;;4592436;19;20018;-33
2022/12/28 08:29:18;;;;;;;18.52;13.55;;;12.90;97.00;;;;;;4593041;19;20556;-30
2022/12/28 08:30:49;;;;;;;18.50;11.77;;;12.90;97.00;;;;;;4592563;19;20010;-30
2022/12/28 08:35:03;;;;;;;17.33;10.60;;;12.90;97.00;;;;;;4592211;19;20051;-27
2022/12/28 08:43:37;;;;;;;13.83;9.17;;;12.80;97.20;;;;;;4594304;19;20441;-32
2022/12/28 08:45:09;;;;;;;14.25;8.68;;;12.80;97.20;;;;;;4593167;19;20037;-31
2022/12/28 08:46:40;;;;;;;16.13;10.35;;;12.90;97.20;;;;;;4593411;19;20025;-32
2022/12/28 08:48:11;;;;;;;17.20;10.73;;;12.80;97.20;;;;;;4591661;19;20567;-34
2022/12/28 08:49:43;;;;;;;18.15;13.50;;;12.90;97.30;;;;;;4592423;19;20014;-33
2022/12/28 08:51:16;;;;;;;16.33;12.15;;;12.80;97.30;;;;;;4592160;19;20007;-37
2022/12/28 08:52:48;;;;;;;13.50;10.20;;;12.80;97.30;;;;;;4591948;19;20006;-33
2022/12/28 08:54:19;;;;;;;15.43;10.32;;;12.80;97.30;;;;;;4591012;19;20464;-30
2022/12/28 08:55:52;;;;;;;13.97;9.90;;;12.80;97.30;;;;;;4592183;19;20013;-31
2022/12/28 08:57:23;;;;;;;13.85;10.00;;;12.80;97.30;;;;;;4591686;19;20022;-32
2022/12/28 08:58:54;;;;;;;13.27;9.63;;;12.80;97.30;;;;;;4591811;19;20011;-30
2022/12/28 09:00:28;;;;;;;13.70;10.47;;;12.80;97.20;;;;;;4590071;19;20014;-29
2022/12/28 09:01:59;;;;;;;14.68;11.13;;;12.80;97.20;;;;;;4590460;19;20014;-29
2022/12/28 09:03:31;;;;;;;13.48;10.18;;;12.90;97.20;;;;;;4591403;19;20014;-29
2022/12/28 09:05:04;;;;;;;15.37;10.70;;;12.90;97.20;;;;;;4590362;19;20010;-29
2022/12/28 09:06:36;;;;;;;13.20;10.25;;;12.90;97.20;;;;;;4591690;19;20522;-29
2022/12/28 09:08:08;;;;;;;16.97;11.67;;;12.90;97.20;;;;;;4591471;19;20537;-32
2022/12/28 09:09:39;;;;;;;16.00;11.48;;;12.90;97.20;;;;;;4591982;19;20082;-29
2022/12/28 09:11:11;;;;;;;15.13;10.68;;;12.90;97.20;;;;;;4591495;19;20010;-31
2022/12/28 09:12:45;;;;;;;19.07;13.07;;;12.90;97.20;;;;;;4589957;19;20027;-31
2022/12/28 09:14:16;;;;;;;16.15;11.48;;;12.80;97.20;;;;;;4591875;19;20015;-34
2022/12/28 09:16:04;;;;;;;18.90;13.30;;;12.90;97.30;;;;;;4592626;19;20026;-31
2022/12/28 09:17:37;;;;;;;15.40;12.00;;;12.80;97.20;;;;;;4593527;19;20014;-31
2022/12/28 09:19:11;;;;;;;14.57;12.13;;;12.80;97.30;;;;;;4593182;19;20015;-35
2022/12/28 09:20:44;;;;;;;17.67;11.87;;;12.80;97.20;;;;;;4589989;19;20027;-29
2022/12/28 09:22:15;;;;;;;19.83;15.23;;;12.80;97.20;;;;;;4593420;19;20045;-35
2022/12/28 09:23:48;;;;;;;22.50;15.23;;;12.80;97.30;;;;;;4592485;19;20011;-38
2022/12/28 09:25:19;;;;;;;24.95;15.07;;;12.80;97.30;;;;;;4592821;19;20014;-36
2022/12/28 09:26:51;;;;;;;;;;;12.80;97.20;;;;;;4594334;19;20095;-34
2022/12/28 09:28:24;;;;;;;15.52;11.18;;;12.80;97.20;;;;;;4589767;19;19922;-29
2022/12/28 09:29:55;;;;;;;15.33;9.83;;;12.80;97.20;;;;;;4591445;19;20034;-37
2022/12/28 09:31:27;;;;;;;13.27;9.50;;;12.80;97.30;;;;;;4590727;19;20345;-37
2022/12/28 09:34:51;;;;;;;15.70;10.10;;;12.90;97.30;;;;;;4591962;19;20503;-29
2022/12/28 09:36:24;;;;;;;16.80;11.10;;;12.80;97.20;;;;;;4592169;19;20019;-30
2022/12/28 09:37:56;;;;;;;15.50;11.77;;;12.80;97.20;;;;;;4591605;19;20457;-30
2022/12/28 09:39:27;;;;;;;15.88;12.48;;;12.80;97.20;;;;;;4592259;19;20010;-30
2022/12/28 09:40:58;;;;;;;17.83;13.15;;;12.80;97.20;;;;;;4591590;19;20015;-31
2022/12/28 09:42:29;;;;;;;19.63;12.70;;;12.80;97.30;;;;;;4592575;19;20018;-31
2022/12/28 09:44:16;;;;;;;20.37;12.43;;;12.80;97.30;;;;;;4592261;19;20010;-29
2022/12/28 10:15:41;;;;;;;13.77;9.80;;;12.90;97.40;;;;;;4589372;19;20369;-28
2022/12/28 10:17:15;;;;;;;14.93;10.20;;;12.80;97.40;;;;;;4591432;19;20022;-28
2022/12/28 10:18:47;;;;;;;16.97;11.00;;;12.80;97.40;;;;;;4589439;19;20015;-29
2022/12/28 10:20:20;;;;;;;13.33;10.67;;;12.80;97.40;;;;;;4591029;19;20485;-29
2022/12/28 10:21:59;;;;;;;14.17;10.73;;;12.80;97.40;;;;;;4591426;19;20054;-28
2022/12/28 10:23:30;;;;;;;15.93;9.93;;;12.80;97.40;;;;;;4591980;19;20010;-29
2022/12/28 10:25:13;;;;;;;14.83;10.23;;;12.90;97.40;;;;;;4590578;19;20074;-29
2022/12/28 10:26:44;;;;;;;14.07;10.13;;;12.90;97.40;;;;;;4589011;19;20063;-29
2022/12/28 10:28:16;;;;;;;;;;;12.90;97.60;;;;;;4589477;19;20025;-29
2022/12/28 10:29:51;;;;;;;17.67;12.90;;;12.90;97.30;;;;;;4588980;19;19915;-30
2022/12/28 10:31:36;;;;;;;25.17;18.20;;;12.90;97.40;;;;;;4589671;19;20105;-30
2022/12/28 10:33:08;;;;;;;55.40;36.33;;;12.90;97.40;;;;;;4588975;19;20027;-29
2022/12/28 10:35:00;;;;;;;60.20;37.10;;;12.90;97.50;;;;;;4587666;19;20014;-29
2022/12/28 10:36:32;;;;;;;59.90;37.08;;;12.80;97.50;;;;;;4589200;19;21183;-29
2022/12/28 10:38:18;;;;;;;99.90;52.53;;;12.80;97.60;;;;;;4587384;19;20034;-30
2022/12/28 10:40:02;;;;;;;162.50;81.80;;;12.80;97.70;;;;;;4589224;19;20023;-29
2022/12/28 10:41:35;;;;;;;137.70;63.87;;;12.80;97.70;;;;;;4589634;19;20022;-33
2022/12/28 10:43:17;;;;;;;218.70;99.83;;;12.80;97.70;;;;;;4587823;19;20026;-29
2022/12/28 10:44:48;;;;;;;;;;;12.80;97.70;;;;;;4589420;19;20013;-31
2022/12/28 10:46:22;;;;;;;121.40;61.07;;;12.80;97.80;;;;;;4588236;19;19923;-29
2022/12/28 10:47:54;;;;;;;84.47;46.77;;;12.80;97.80;;;;;;4587563;19;20025;-33
2022/12/28 10:49:26;;;;;;;53.27;32.23;;;12.70;97.80;;;;;;4589800;19;20450;-29
2022/12/28 10:51:11;;;;;;;58.63;37.63;;;12.80;97.90;;;;;;4588575;19;20025;-30
2022/12/28 10:52:42;;;;;;;40.17;26.23;;;12.80;97.90;;;;;;4589139;19;20006;-29
2022/12/28 10:54:23;;;;;;;45.75;34.28;;;12.80;98.00;;;;;;4588624;19;20040;-29
2022/12/28 10:56:12;;;;;;;30.47;23.40;;;12.80;98.00;;;;;;4588616;19;20014;-29
2022/12/28 10:57:43;;;;;;;24.20;18.97;;;12.70;98.10;;;;;;4590325;19;20025;-29
2022/12/28 10:59:22;;;;;;;17.95;13.85;;;12.70;98.10;;;;;;4589815;19;20537;-29
2022/12/28 11:00:54;;;;;;;16.53;11.60;;;12.70;98.10;;;;;;4589137;19;20114;-29
2022/12/28 11:02:27;;;;;;;14.80;11.20;;;12.70;98.20;;;;;;4589612;19;20070;-31
2022/12/28 11:04:05;;;;;;;15.47;10.70;;;12.80;98.20;;;;;;4589903;19;20504;-31
2022/12/28 11:05:36;;;;;;;13.73;9.90;;;12.70;98.20;;;;;;4590782;19;20576;-28
2022/12/28 11:07:26;;;;;;;17.42;11.57;;;12.70;98.20;;;;;;4588749;19;20026;-29
2022/12/28 11:09:15;;;;;;;16.23;9.90;;;12.80;98.20;;;;;;4589902;19;20447;-31
2022/12/28 11:10:46;;;;;;;14.37;10.43;;;12.80;98.20;;;;;;4590964;19;20886;-29
2022/12/28 11:12:21;;;;;;;14.65;10.57;;;12.70;98.20;;;;;;4588976;19;20014;-30
2022/12/28 11:14:23;;;;;;;14.87;9.80;;;12.70;98.20;;;;;;4588722;19;20086;-33
2022/12/28 11:17:36;;;;;;;14.87;10.97;;;12.80;98.30;;;;;;4590432;19;20461;-30
2022/12/28 11:19:08;;;;;;;14.73;11.38;;;12.80;98.30;;;;;;4589243;19;20500;-30
2022/12/28 11:20:42;;;;;;;13.23;9.38;;;12.80;98.20;;;;;;4589911;19;20330;-30
2022/12/28 11:22:14;;;;;;;12.20;8.93;;;12.70;98.10;;;;;;4589733;19;20086;-31
2022/12/28 11:23:49;;;;;;;12.00;8.80;;;12.70;98.10;;;;;;4589540;19;20018;-31
2022/12/28 11:25:25;;;;;;;13.67;9.30;;;12.70;98.00;;;;;;4589106;19;20472;-31
2022/12/28 11:26:57;;;;;;;15.07;10.67;;;12.70;98.00;;;;;;4589076;19;20509;-30
2022/12/28 11:28:28;;;;;;;12.52;9.27;;;12.70;98.00;;;;;;4590278;19;20529;-32
2022/12/28 11:29:59;;;;;;;12.70;9.18;;;12.60;98.20;;;;;;4590194;19;20011;-29
2022/12/28 11:31:35;;;;;;;13.40;9.48;;;12.70;98.00;;;;;;4590108;19;20490;-31
2022/12/28 11:33:08;;;;;;;13.37;8.87;;;12.70;98.00;;;;;;4587356;19;20026;-29
2022/12/28 11:34:39;;;;;;;15.47;9.37;;;12.70;97.90;;;;;;4588742;19;20487;-30
2022/12/28 11:36:24;;;;;;;13.18;8.55;;;12.70;98.00;;;;;;4588390;19;21009;-30
2022/12/28 11:38:00;;;;;;;15.87;9.90;;;12.70;97.90;;;;;;4589222;19;20476;-30
2022/12/28 11:39:31;;;;;;;16.17;9.10;;;12.70;98.00;;;;;;4588813;19;20025;-32
2022/12/28 11:41:02;;;;;;;13.85;8.27;;;12.70;98.20;;;;;;4587864;19;21361;-29
2022/12/28 11:42:34;;;;;;;11.85;8.65;;;12.70;97.90;;;;;;4587639;19;20014;-31
2022/12/28 11:44:05;;;;;;;14.02;9.23;;;12.70;98.00;;;;;;4590636;19;20073;-31
2022/12/28 11:45:52;;;;;;;15.23;10.23;;;12.70;98.00;;;;;;4588565;19;20018;-30
2022/12/28 11:47:35;;;;;;;12.97;9.33;;;12.70;98.00;;;;;;4590165;19;20372;-30
2022/12/28 11:49:24;;;;;;;12.02;8.98;;;12.70;98.00;;;;;;4590540;19;20024;-32
2022/12/28 11:51:02;;;;;;;17.97;10.23;;;12.70;98.10;;;;;;4588702;19;20018;-29
2022/12/28 11:52:45;;;;;;;15.00;9.30;;;12.80;98.00;;;;;;4589620;19;20010;-30
2022/12/28 11:54:34;;;;;;;;;;;12.80;98.00;;;;;;4589930;19;20445;-30
2022/12/28 11:56:07;;;;;;;16.93;11.40;;;12.80;98.00;;;;;;4589677;19;19925;-29
2022/12/28 11:57:39;;;;;;;13.10;9.73;;;12.70;98.10;;;;;;4594653;19;20024;-29
2022/12/28 11:59:22;;;;;;;13.47;8.90;;;12.70;98.20;;;;;;4593689;19;20525;-30
2022/12/28 12:00:53;;;;;;;15.37;10.37;;;12.70;98.10;;;;;;4592386;19;20014;-29
2022/12/28 12:02:27;;;;;;;13.25;8.98;;;12.70;98.10;;;;;;4593673;19;20527;-31
2022/12/28 12:03:59;;;;;;;12.40;8.37;;;12.70;98.20;;;;;;4594278;19;20006;-32
2022/12/28 12:05:36;;;;;;;15.88;9.40;;;12.70;98.10;;;;;;4595059;19;20022;-29
2022/12/28 12:07:17;;;;;;;15.77;9.73;;;12.70;98.10;;;;;;4593788;19;20034;-30
2022/12/28 12:08:48;;;;;;;15.75;9.48;;;12.70;98.20;;;;;;4593158;19;20022;-33
2022/12/28 12:10:27;;;;;;;14.13;10.50;;;12.70;98.30;;;;;;4592629;19;20434;-29
2022/12/28 12:12:02;;;;;;;15.27;10.43;;;12.70;98.30;;;;;;4592805;19;20017;-30
2022/12/28 12:13:36;;;;;;;14.23;9.73;;;12.70;98.40;;;;;;4592415;19;20025;-31
2022/12/28 12:15:16;;;;;;;16.43;10.67;;;12.70;98.40;;;;;;4592699;19;20540;-30
2022/12/28 12:17:06;;;;;;;12.63;9.47;;;12.70;98.40;;;;;;4593772;19;20010;-31
2022/12/28 12:18:46;;;;;;;16.30;10.83;;;12.70;98.40;;;;;;4592871;19;20515;-31
2022/12/28 12:20:23;;;;;;;18.17;10.00;;;12.70;98.40;;;;;;4593352;19;20425;-33
2022/12/28 12:22:02;;;;;;;12.80;9.43;;;12.70;98.50;;;;;;4593759;19;20465;-30
2022/12/28 12:23:45;;;;;;;14.07;10.47;;;12.70;98.40;;;;;;4592604;19;20952;-37
2022/12/28 12:25:34;;;;;;;16.43;11.07;;;12.70;98.50;;;;;;4593462;19;20551;-34
2022/12/28 12:27:14;;;;;;;16.07;9.53;;;12.70;98.70;;;;;;4593972;19;20448;-30
2022/12/28 12:28:53;;;;;;;14.87;10.10;;;12.70;98.70;;;;;;4593248;19;20520;-36
2022/12/28 12:30:24;;;;;;;15.43;11.07;;;12.70;98.60;;;;;;4593104;19;20472;-33
2022/12/28 12:32:14;;;;;;;14.68;9.05;;;12.70;98.70;;;;;;4592401;19;20473;-29
2022/12/28 12:33:46;;;;;;;15.13;9.67;;;12.70;98.70;;;;;;4592437;19;20082;-33
2022/12/28 12:35:22;;;;;;;14.57;9.90;;;12.70;98.70;;;;;;4593069;19;20357;-33
2022/12/28 12:37:31;;;;;;;13.63;8.80;;;12.70;98.80;;;;;;4593649;19;20469;-32
2022/12/28 12:39:14;;;;;;;13.77;8.43;;;12.70;98.80;;;;;;4592212;19;20034;-35
2022/12/28 12:41:00;;;;;;;12.87;8.83;;;12.70;98.80;;;;;;4589837;19;20344;-31
2022/12/28 12:42:58;;;;;;;14.43;9.27;;;12.70;98.80;;;;;;4590092;19;20018;-30
2022/12/28 12:44:33;;;;;;;15.13;9.93;;;12.70;98.80;;;;;;4590222;19;20022;-30
2022/12/28 12:46:22;;;;;;;18.13;14.30;;;12.70;98.90;;;;;;4590227;19;20025;-30
2022/12/28 12:48:28;;;;;;;13.77;10.23;;;12.70;98.90;;;;;;4590300;19;20924;-31
2022/12/28 12:50:14;;;;;;;14.87;9.77;;;12.70;98.90;;;;;;4591524;19;20441;-30
2022/12/28 12:52:00;;;;;;;17.00;9.50;;;12.70;98.90;;;;;;4590936;19;20015;-31
2022/12/28 12:54:00;;;;;;;15.47;10.33;;;12.70;98.90;;;;;;4590145;19;20811;-31
2022/12/28 12:55:57;;;;;;;17.07;10.40;;;12.70;98.90;;;;;;4591498;19;20472;-30
2022/12/28 12:57:34;;;;;;;13.23;9.70;;;12.70;99.00;;;;;;4591786;19;20011;-30
2022/12/28 12:59:38;;;;;;;15.83;10.67;;;12.70;99.00;;;;;;4590456;19;21196;-31
2022/12/28 13:01:36;;;;;;;16.60;10.63;;;12.60;99.10;;;;;;4588822;19;20127;-31
2022/12/28 13:03:33;;;;;;;15.67;9.13;;;12.60;99.20;;;;;;4591893;19;20011;-31
2022/12/28 13:05:05;;;;;;;14.17;9.33;;;12.60;99.30;;;;;;4590426;19;20440;-31
2022/12/28 13:06:38;;;;;;;;;;;12.60;99.40;;;;;;4590420;19;20109;-31
2022/12/28 13:08:19;;;;;;;17.33;11.37;;;12.60;99.60;;;;;;4590247;19;19914;-30
2022/12/28 13:09:50;;;;;;;16.00;8.97;;;12.50;99.70;;;;;;4590340;19;20538;-29
2022/12/28 13:11:24;;;;;;;18.43;10.90;;;12.50;99.70;;;;;;4591135;19;21271;-29
2022/12/28 13:12:57;;;;;;;18.53;11.33;;;12.60;99.80;;;;;;4591854;19;20022;-30
2022/12/28 13:14:28;;;;;;;18.77;11.67;;;12.50;99.90;;;;;;4591028;19;20499;-31
2022/12/28 13:16:07;;;;;;;21.53;14.17;;;12.60;99.90;;;;;;4593119;19;20014;-31
2022/12/28 13:17:38;;;;;;;17.20;11.33;;;12.60;99.90;;;;;;4591838;19;20015;-29
2022/12/28 13:28:33;;;;;;;14.53;8.67;;;12.70;99.90;;;;;;4591691;19;21119;-29
2022/12/28 13:30:28;;;;;;;15.17;8.77;;;12.70;99.90;;;;;;4590813;19;20014;-29
2022/12/28 13:31:59;;;;;;;13.90;8.83;;;12.70;99.90;;;;;;4591684;19;20022;-32
2022/12/28 13:33:30;;;;;;;13.05;8.40;;;12.70;99.90;;;;;;4592716;19;20483;-32
2022/12/28 13:35:01;;;;;;;16.23;9.73;;;12.70;99.90;;;;;;4591511;19;20038;-35
2022/12/28 13:36:35;;;;;;;15.53;10.37;;;12.60;99.90;;;;;;4591883;19;20372;-36
2022/12/28 13:38:12;;;;;;;14.23;9.27;;;12.70;99.90;;;;;;4592174;19;20500;-30
2022/12/28 13:39:44;;;;;;;14.37;8.97;;;12.70;99.90;;;;;;4591879;19;20007;-30
2022/12/28 13:41:26;;;;;;;14.40;9.00;;;12.70;99.90;;;;;;4592086;19;20607;-32
2022/12/28 13:43:19;;;;;;;18.67;10.47;;;12.70;99.90;;;;;;4592603;19;20037;-31
2022/12/28 13:44:55;;;;;;;18.33;11.87;;;12.80;99.90;;;;;;4591287;19;20457;-30